Portada
METAR-TAF:

METAR-TAF

Aeropuertos :

Aeropuerto de Melilla

Melilla, España

latitud: 35-17N, longitud: 002-57W, altitud: 47 m

Observación

El informe se hizo hace 30 minutos, a las 15:00 UTC
Viento 14 kt del oeste, variando entre suroeste y noroeste
Temperatura 22°C
Humedad 50%
Presión 1012 hPa
Visibilidad 10 km o más
sin nubes por debajo de 1500 m y sin presencia de cumulonimbus.

METAR: GEML 191500Z 27014KT 230V310 CAVOK 22/11 Q1012

Hora: 17:30 (15:30 UTC)

Pronóstico

El informe se hizo hace 1 hora y 30 minutos, a las 14:00 UTC
Pronóstico válido del 19 a las 15 UTC al 20 a las 15 UTC
Viento 13 kt del oeste
Visibilidad 10 km o más
sin nubes por debajo de 1500 m y sin presencia de cumulonimbus.
Temporalmente
del 19 a las 15 UTC al 19 a las 18 UTC
Viento 17 kt del oeste con ráfagas de 27 kt

TAF: GEML 191400Z 1915/2015 27013KT CAVOK TX24/2013Z TN17/2006Z TEMPO 1915/1918 27017G27KT

Observaciones y pronósticos meteorológicos de más de 4000 aeropuertos (mensajes METAR y TAF).

Los puntos amarillos y rojos representan las estaciones disponibles.

Ponga el ratón en el punto deseado para ver el nombre de la estación.

Haga clic para ver las observaciones y los pronósticos meteorológicos.

Para cambiar el mapa : haga clic en los botones verdes con una cruz de color negro para hacer un zoom, en el botón verde con un guión para alejar o en las flechas verdes para mapas adyacentes.


METAR-TAF: